Williston, North Dakota
Current Conditions -  °F | °C
As of 11:52 AM on Friday 31 Oct 2014 (Local Time) from KISN Reporting Station
Clear Clear  
Wind Chill: 26°   Ceiling: Unl
Heat Index: 36°   Visibility: 10mi
Dew Point: 27°   Wind: 16mph
Humidity: 70%   Direction: 140°SE
Pressure: 30.21"   Gusts: 25mph
Location:  48.15°N, 103.62°W
Report Text: KISN 311652Z AUTO 14014G22KT 10SM CLR 02/M03 A3021 RMK AO2 SLP253 T00221028
Loading
Personal Weather Stations






























Interactive Weather Map
Tropical Storm Tracking
New forecast layout! Learn more

10-Day Weather Forecast

Advertisements
Track Severe Weather on mobile